<?xml version="1.0"?>
<gpx xmlns="http://www.topografix.com/GPX/1/1" xmlns:xsi="http://www.w3.org/2001/XMLSchema-instance" xmlns:wptx1="http://www.garmin.com/xmlschemas/WaypointExtension/v1" xmlns:gpxtrx="http://www.garmin.com/xmlschemas/GpxExtensions/v3" xmlns:gpxtpx="http://www.garmin.com/xmlschemas/TrackPointExtension/v1" xmlns:gpxx="http://www.garmin.com/xmlschemas/GpxExtensions/v3" xmlns:trp="http://www.garmin.com/xmlschemas/TripExtensions/v1" xmlns:adv="http://www.garmin.com/xmlschemas/AdventuresExtensions/v1" xmlns:prs="http://www.garmin.com/xmlschemas/PressureExtension/v1" xmlns:tmd="http://www.garmin.com/xmlschemas/TripMetaDataExtensions/v1" xmlns:vptm="http://www.garmin.com/xmlschemas/ViaPointTransportationModeExtensions/v1" xmlns:ctx="http://www.garmin.com/xmlschemas/CreationTimeExtension/v1" xmlns:gpxacc="http://www.garmin.com/xmlschemas/AccelerationExtension/v1" xmlns:gpxpx="http://www.garmin.com/xmlschemas/PowerExtension/v1" xmlns:vidx1="http://www.garmin.com/xmlschemas/VideoExtension/v1" creator="Garmin Desktop App" version="1.1" xsi:schemaLocation="http://www.topografix.com/GPX/1/1 http://www.topografix.com/GPX/1/1/gpx.xsd http://www.garmin.com/xmlschemas/WaypointExtension/v1 http://www8.garmin.com/xmlschemas/WaypointExtensionv1.xsd http://www.garmin.com/xmlschemas/TrackPointExtension/v1 http://www.garmin.com/xmlschemas/TrackPointExtensionv1.xsd http://www.garmin.com/xmlschemas/GpxExtensions/v3 http://www8.garmin.com/xmlschemas/GpxExtensionsv3.xsd http://www.garmin.com/xmlschemas/ActivityExtension/v1 http://www8.garmin.com/xmlschemas/ActivityExtensionv1.xsd http://www.garmin.com/xmlschemas/AdventuresExtensions/v1 http://www8.garmin.com/xmlschemas/AdventuresExtensionv1.xsd http://www.garmin.com/xmlschemas/PressureExtension/v1 http://www.garmin.com/xmlschemas/PressureExtensionv1.xsd http://www.garmin.com/xmlschemas/TripExtensions/v1 http://www.garmin.com/xmlschemas/TripExtensionsv1.xsd http://www.garmin.com/xmlschemas/TripMetaDataExtensions/v1 http://www.garmin.com/xmlschemas/TripMetaDataExtensionsv1.xsd http://www.garmin.com/xmlschemas/ViaPointTransportationModeExtensions/v1 http://www.garmin.com/xmlschemas/ViaPointTransportationModeExtensionsv1.xsd http://www.garmin.com/xmlschemas/CreationTimeExtension/v1 http://www.garmin.com/xmlschemas/CreationTimeExtensionsv1.xsd http://www.garmin.com/xmlschemas/AccelerationExtension/v1 http://www.garmin.com/xmlschemas/AccelerationExtensionv1.xsd http://www.garmin.com/xmlschemas/PowerExtension/v1 http://www.garmin.com/xmlschemas/PowerExtensionv1.xsd http://www.garmin.com/xmlschemas/VideoExtension/v1 http://www.garmin.com/xmlschemas/VideoExtensionv1.xsd">

  <metadata>
    <link href="http://www.garmin.com">
      <text>Garmin International</text>
    </link>
    <time>2018-02-26T07:31:50Z</time>
    <bounds maxlat="12.772410269826651" maxlon="99.908625008538365" minlat="12.691949028521776" minlon="99.848994975909591"/>
  </metadata>

  <wpt lat="12.705904813483357" lon="99.889427097514272">
    <ele>72</ele>
    <name>Imperial</name>
    <cmt>26-AUG-11 15:49:46</cmt>
    <desc>26-AUG-11 15:49:46</desc>
    <sym>Lodging</sym>
    <type>user</type>
    <extensions>
      <gpxx:WaypointExtension>
        <gpxx:DisplayMode>SymbolOnly</gpxx:DisplayMode>
      </gpxx:WaypointExtension>
      <wptx1:WaypointExtension>
        <wptx1:DisplayMode>SymbolOnly</wptx1:DisplayMode>
      </wptx1:WaypointExtension>
    </extensions>
  </wpt>

  <wpt lat="12.745192972943187" lon="99.872416025027633">
    <ele>245</ele>
    <name>Water</name>
    <cmt>27-JUL-13 14:24:11</cmt>
    <desc>27-JUL-13 14:24:11</desc>
    <sym>Drinking Water</sym>
    <type>user</type>
    <extensions>
      <gpxx:WaypointExtension>
        <gpxx:DisplayMode>SymbolOnly</gpxx:DisplayMode>
      </gpxx:WaypointExtension>
      <wptx1:WaypointExtension>
        <wptx1:DisplayMode>SymbolOnly</wptx1:DisplayMode>
      </wptx1:WaypointExtension>
    </extensions>
  </wpt>

  <trk>
    <name>Sat shortcut</name>
    <extensions>
      <gpxx:TrackExtension>
        <gpxx:DisplayColor>DarkRed</gpxx:DisplayColor>
      </gpxx:TrackExtension>
    </extensions>
    <trkseg>
      <trkpt lat="12.72942359559238" lon="99.864244423806667">
        <ele>98.6724853515625</ele>
        <time>2013-07-27T06:53:56Z</time>
      </trkpt>
      <trkpt lat="12.729717548936605" lon="99.864361183717847">
        <ele>98.6724853515625</ele>
        <time>2013-07-27T06:54:14Z</time>
      </trkpt>
      <trkpt lat="12.730126501992345" lon="99.864507112652063">
        <ele>98.6724853515625</ele>
        <time>2013-07-27T06:54:31Z</time>
      </trkpt>
      <trkpt lat="12.730342838913202" lon="99.864574167877436">
        <ele>100.114501953125</ele>
        <time>2013-07-27T06:54:46Z</time>
      </trkpt>
      <trkpt lat="12.730435794219375" lon="99.864622866734862">
        <ele>101.07568359375</ele>
        <time>2013-07-27T06:54:53Z</time>
      </trkpt>
      <trkpt lat="12.73050787858665" lon="99.864632925018668">
        <ele>101.556396484375</ele>
        <time>2013-07-27T06:54:57Z</time>
      </trkpt>
      <trkpt lat="12.730790348723531" lon="99.86472437158227">
        <ele>103.47900390625</ele>
        <time>2013-07-27T06:55:15Z</time>
      </trkpt>
      <trkpt lat="12.731113638728857" lon="99.864706015214324">
        <ele>105.4017333984375</ele>
        <time>2013-07-27T06:55:32Z</time>
      </trkpt>
      <trkpt lat="12.731347661465406" lon="99.864660920575261">
        <ele>106.8436279296875</ele>
        <time>2013-07-27T06:55:46Z</time>
      </trkpt>
      <trkpt lat="12.731635831296444" lon="99.864541310817003">
        <ele>107.8050537109375</ele>
        <time>2013-07-27T06:56:02Z</time>
      </trkpt>
      <trkpt lat="12.73200455121696" lon="99.864372499287128">
        <ele>107.8050537109375</ele>
        <time>2013-07-27T06:56:20Z</time>
      </trkpt>
      <trkpt lat="12.732372935861349" lon="99.864147612825036">
        <ele>108.7662353515625</ele>
        <time>2013-07-27T06:56:36Z</time>
      </trkpt>
      <trkpt lat="12.732742577791214" lon="99.863868830725551">
        <ele>110.6888427734375</ele>
        <time>2013-07-27T06:56:53Z</time>
      </trkpt>
      <trkpt lat="12.732954220846295" lon="99.863792639225721">
        <ele>114.5341796875</ele>
        <time>2013-07-27T06:57:10Z</time>
      </trkpt>
      <trkpt lat="12.733001494780183" lon="99.863763973116875">
        <ele>115.49560546875</ele>
        <time>2013-07-27T06:57:15Z</time>
      </trkpt>
      <trkpt lat="12.733090426772833" lon="99.863746119663119">
        <ele>116.9375</ele>
        <time>2013-07-27T06:57:23Z</time>
      </trkpt>
      <trkpt lat="12.73335512727499" lon="99.863765062764287">
        <ele>116.9375</ele>
        <time>2013-07-27T06:57:43Z</time>
      </trkpt>
      <trkpt lat="12.733394186943769" lon="99.86378526315093">
        <ele>117.418212890625</ele>
        <time>2013-07-27T06:57:46Z</time>
      </trkpt>
      <trkpt lat="12.733503235504031" lon="99.863851312547922">
        <ele>117.418212890625</ele>
        <time>2013-07-27T06:57:55Z</time>
      </trkpt>
      <trkpt lat="12.73374991491437" lon="99.863878134638071">
        <ele>120.3021240234375</ele>
        <time>2013-07-27T06:58:14Z</time>
      </trkpt>
      <trkpt lat="12.734041856601834" lon="99.863700270652771">
        <ele>121.2635498046875</ele>
        <time>2013-07-27T06:58:31Z</time>
      </trkpt>
      <trkpt lat="12.734465394169092" lon="99.863435486331582">
        <ele>123.1861572265625</ele>
        <time>2013-07-27T06:58:51Z</time>
      </trkpt>
      <trkpt lat="12.734540579840541" lon="99.86333473585546">
        <ele>123.666748046875</ele>
        <time>2013-07-27T06:58:55Z</time>
      </trkpt>
      <trkpt lat="12.734746439382434" lon="99.863089313730597">
        <ele>123.1861572265625</ele>
        <time>2013-07-27T06:59:04Z</time>
      </trkpt>
      <trkpt lat="12.73503553122282" lon="99.862774321809411">
        <ele>123.666748046875</ele>
        <time>2013-07-27T06:59:18Z</time>
      </trkpt>
      <trkpt lat="12.735211383551359" lon="99.862578520551324">
        <ele>126.0699462890625</ele>
        <time>2013-07-27T06:59:36Z</time>
      </trkpt>
      <trkpt lat="12.735405759885907" lon="99.862612718716264">
        <ele>126.0699462890625</ele>
        <time>2013-07-27T06:59:50Z</time>
      </trkpt>
    </trkseg>
  </trk>

  <trk>
    <name>Saturday</name>
    <extensions>
      <gpxx:TrackExtension>
        <gpxx:DisplayColor>Red</gpxx:DisplayColor>
      </gpxx:TrackExtension>
    </extensions>
    <trkseg>
      <trkpt lat="12.706337990239263" lon="99.890045011416078">
        <ele>82.329999999999998</ele>
        <time>2013-07-27T06:06:05Z</time>
      </trkpt>
      <trkpt lat="12.70596600137651" lon="99.890154981985688">
        <ele>81.849999999999994</ele>
        <time>2013-07-27T06:07:25Z</time>
      </trkpt>
      <trkpt lat="12.705872040241957" lon="99.890318010002375">
        <ele>81.370000000000005</ele>
        <time>2013-07-27T06:07:36Z</time>
      </trkpt>
      <trkpt lat="12.706235982477665" lon="99.891110016033053">
        <ele>79.450000000000003</ele>
        <time>2013-07-27T06:07:52Z</time>
      </trkpt>
      <trkpt lat="12.706257021054626" lon="99.892293037846684">
        <ele>81.370000000000005</ele>
        <time>2013-07-27T06:08:14Z</time>
      </trkpt>
      <trkpt lat="12.706084018573165" lon="99.892491018399596">
        <ele>81.370000000000005</ele>
        <time>2013-07-27T06:08:19Z</time>
      </trkpt>
      <trkpt lat="12.704543005675077" lon="99.893382014706731">
        <ele>76.079999999999998</ele>
        <time>2013-07-27T06:08:46Z</time>
      </trkpt>
      <trkpt lat="12.70154002122581" lon="99.893560968339443">
        <ele>72.719999999999999</ele>
        <time>2013-07-27T06:09:41Z</time>
      </trkpt>
      <trkpt lat="12.701633982360363" lon="99.894279967993498">
        <ele>70.790000000000006</ele>
        <time>2013-07-27T06:13:13Z</time>
      </trkpt>
      <trkpt lat="12.701517976820469" lon="99.894364960491657">
        <ele>70.310000000000002</ele>
        <time>2013-07-27T06:13:23Z</time>
      </trkpt>
      <trkpt lat="12.705180030316114" lon="99.894245015457273">
        <ele>81.370000000000005</ele>
        <time>2013-07-27T06:15:19Z</time>
      </trkpt>
      <trkpt lat="12.705388991162181" lon="99.89363799802959">
        <ele>82.329999999999998</ele>
        <time>2013-07-27T06:15:41Z</time>
      </trkpt>
      <trkpt lat="12.706302031874657" lon="99.893412021920085">
        <ele>86.180000000000007</ele>
        <time>2013-07-27T06:16:13Z</time>
      </trkpt>
      <trkpt lat="12.707830974832177" lon="99.89398299716413">
        <ele>93.870000000000005</ele>
        <time>2013-07-27T06:17:13Z</time>
      </trkpt>
      <trkpt lat="12.708128029480577" lon="99.894286002963781">
        <ele>97.230000000000004</ele>
        <time>2013-07-27T06:18:00Z</time>
      </trkpt>
      <trkpt lat="12.708593979477882" lon="99.894195981323719">
        <ele>101.079999999999998</ele>
        <time>2013-07-27T06:18:35Z</time>
      </trkpt>
      <trkpt lat="12.709660995751619" lon="99.894027002155781">
        <ele>94.829999999999998</ele>
        <time>2013-07-27T06:19:29Z</time>
      </trkpt>
      <trkpt lat="12.709775995463133" lon="99.893894987180829">
        <ele>95.310000000000002</ele>
        <time>2013-07-27T06:19:54Z</time>
      </trkpt>
      <trkpt lat="12.710043964907527" lon="99.894058015197515">
        <ele>92.420000000000002</ele>
        <time>2013-07-27T06:20:39Z</time>
      </trkpt>
      <trkpt lat="12.710362980142236" lon="99.893626011908054">
        <ele>86.659999999999997</ele>
        <time>2013-07-27T06:21:27Z</time>
      </trkpt>
      <trkpt lat="12.710878970101476" lon="99.893805971369147">
        <ele>86.180000000000007</ele>
        <time>2013-07-27T06:21:49Z</time>
      </trkpt>
      <trkpt lat="12.711120033636689" lon="99.894130015745759">
        <ele>90.019999999999996</ele>
        <time>2013-07-27T06:22:08Z</time>
      </trkpt>
      <trkpt lat="12.711199996992946" lon="99.894181983545423">
        <ele>90.019999999999996</ele>
        <time>2013-07-27T06:22:13Z</time>
      </trkpt>
      <trkpt lat="12.711378028616309" lon="99.894136972725391">
        <ele>90.019999999999996</ele>
        <time>2013-07-27T06:22:39Z</time>
      </trkpt>
      <trkpt lat="12.711503002792597" lon="99.893718967214227">
        <ele>87.140000000000001</ele>
        <time>2013-07-27T06:23:07Z</time>
      </trkpt>
      <trkpt lat="12.711498979479074" lon="99.893706981092691">
        <ele>84.730000000000004</ele>
        <time>2013-07-27T06:23:10Z</time>
      </trkpt>
      <trkpt lat="12.711904998868704" lon="99.893641015514731">
        <ele>87.140000000000001</ele>
        <time>2013-07-27T06:23:27Z</time>
      </trkpt>
      <trkpt lat="12.712222002446651" lon="99.893538001924753">
        <ele>83.769999999999996</ele>
        <time>2013-07-27T06:23:34Z</time>
      </trkpt>
      <trkpt lat="12.712598014622927" lon="99.893256034702063">
        <ele>84.25</ele>
        <time>2013-07-27T06:23:45Z</time>
      </trkpt>
      <trkpt lat="12.713019037619233" lon="99.892517002299428">
        <ele>79.450000000000003</ele>
        <time>2013-07-27T06:23:58Z</time>
      </trkpt>
      <trkpt lat="12.714529037475586" lon="99.892203016206622">
        <ele>77.040000000000006</ele>
        <time>2013-07-27T06:24:34Z</time>
      </trkpt>
      <trkpt lat="12.715804008767009" lon="99.891089983284473">
        <ele>72.719999999999999</ele>
        <time>2013-07-27T06:25:08Z</time>
      </trkpt>
      <trkpt lat="12.716340031474829" lon="99.891027035191655">
        <ele>73.200000000000003</ele>
        <time>2013-07-27T06:25:21Z</time>
      </trkpt>
      <trkpt lat="12.716673966497183" lon="99.891507988795638">
        <ele>77.519999999999996</ele>
        <time>2013-07-27T06:25:41Z</time>
      </trkpt>
      <trkpt lat="12.71696699783206" lon="99.89157797768712">
        <ele>79.450000000000003</ele>
        <time>2013-07-27T06:25:54Z</time>
      </trkpt>
      <trkpt lat="12.717042015865445" lon="99.891528021544218">
        <ele>79.450000000000003</ele>
        <time>2013-07-27T06:25:57Z</time>
      </trkpt>
      <trkpt lat="12.717518024146557" lon="99.891446968540549">
        <ele>75.120000000000005</ele>
        <time>2013-07-27T06:26:12Z</time>
      </trkpt>
      <trkpt lat="12.721648039296269" lon="99.887731019407511">
        <ele>73.680000000000007</ele>
        <time>2013-07-27T06:29:22Z</time>
      </trkpt>
      <trkpt lat="12.722340971231461" lon="99.887247970327735">
        <ele>73.200000000000003</ele>
        <time>2013-07-27T06:29:39Z</time>
      </trkpt>
      <trkpt lat="12.723933029919863" lon="99.88714998587966">
        <ele>72.719999999999999</ele>
        <time>2013-07-27T06:30:14Z</time>
      </trkpt>
      <trkpt lat="12.726005036383867" lon="99.886230994015932">
        <ele>74.159999999999997</ele>
        <time>2013-07-27T06:31:16Z</time>
      </trkpt>
      <trkpt lat="12.726261019706726" lon="99.886360997334123">
        <ele>71.760000000000005</ele>
        <time>2013-07-27T06:31:22Z</time>
      </trkpt>
      <trkpt lat="12.72719400934875" lon="99.887913996353745">
        <ele>73.200000000000003</ele>
        <time>2013-07-27T06:31:59Z</time>
      </trkpt>
      <trkpt lat="12.727648979052901" lon="99.887336986139417">
        <ele>75.120000000000005</ele>
        <time>2013-07-27T06:32:25Z</time>
      </trkpt>
      <trkpt lat="12.727866992354393" lon="99.887250987812877">
        <ele>77.040000000000006</ele>
        <time>2013-07-27T06:32:36Z</time>
      </trkpt>
      <trkpt lat="12.728134039789438" lon="99.887104975059628">
        <ele>77.519999999999996</ele>
        <time>2013-07-27T06:32:52Z</time>
      </trkpt>
      <trkpt lat="12.72852698341012" lon="99.886509021744132">
        <ele>80.409999999999997</ele>
        <time>2013-07-27T06:33:21Z</time>
      </trkpt>
      <trkpt lat="12.728997962549329" lon="99.886304000392556">
        <ele>81.370000000000005</ele>
        <time>2013-07-27T06:33:35Z</time>
      </trkpt>
      <trkpt lat="12.729237014427781" lon="99.885966964066029">
        <ele>81.849999999999994</ele>
        <time>2013-07-27T06:33:47Z</time>
      </trkpt>
      <trkpt lat="12.729204995557666" lon="99.885523980483413">
        <ele>82.810000000000002</ele>
        <time>2013-07-27T06:34:02Z</time>
      </trkpt>
      <trkpt lat="12.729312032461166" lon="99.884169967845082">
        <ele>78.480000000000004</ele>
        <time>2013-07-27T06:34:38Z</time>
      </trkpt>
      <trkpt lat="12.729689972475171" lon="99.883287018164992">
        <ele>80.890000000000001</ele>
        <time>2013-07-27T06:35:04Z</time>
      </trkpt>
      <trkpt lat="12.730091968551278" lon="99.881643997505307">
        <ele>85.209999999999994</ele>
        <time>2013-07-27T06:35:45Z</time>
      </trkpt>
      <trkpt lat="12.730336971580982" lon="99.880845034494996">
        <ele>85.209999999999994</ele>
        <time>2013-07-27T06:36:08Z</time>
      </trkpt>
      <trkpt lat="12.731734989210963" lon="99.880255032330751">
        <ele>93.390000000000001</ele>
        <time>2013-07-27T06:37:01Z</time>
      </trkpt>
      <trkpt lat="12.732373019680381" lon="99.879204025492072">
        <ele>94.349999999999994</ele>
        <time>2013-07-27T06:37:34Z</time>
      </trkpt>
      <trkpt lat="12.732817009091377" lon="99.878781996667385">
        <ele>91.459999999999994</ele>
        <time>2013-07-27T06:37:44Z</time>
      </trkpt>
      <trkpt lat="12.733299974352121" lon="99.878473961725831">
        <ele>90.980000000000004</ele>
        <time>2013-07-27T06:38:00Z</time>
      </trkpt>
      <trkpt lat="12.733712028712034" lon="99.878428028896451">
        <ele>93.870000000000005</ele>
        <time>2013-07-27T06:38:19Z</time>
      </trkpt>
      <trkpt lat="12.733653020113707" lon="99.878101972863078">
        <ele>92.900000000000006</ele>
        <time>2013-07-27T06:38:31Z</time>
      </trkpt>
      <trkpt lat="12.73379098623991" lon="99.877893012017012">
        <ele>93.390000000000001</ele>
        <time>2013-07-27T06:38:41Z</time>
      </trkpt>
      <trkpt lat="12.733303997665644" lon="99.877476012334228">
        <ele>91.939999999999998</ele>
        <time>2013-07-27T06:39:05Z</time>
      </trkpt>
      <trkpt lat="12.732224995270371" lon="99.877413986250758">
        <ele>89.060000000000002</ele>
        <time>2013-07-27T06:39:32Z</time>
      </trkpt>
      <trkpt lat="12.731350008398294" lon="99.876765981316566">
        <ele>90.980000000000004</ele>
        <time>2013-07-27T06:39:54Z</time>
      </trkpt>
      <trkpt lat="12.730762017890811" lon="99.876446966081858">
        <ele>90.980000000000004</ele>
        <time>2013-07-27T06:40:09Z</time>
      </trkpt>
      <trkpt lat="12.72990396246314" lon="99.875950003042817">
        <ele>90.019999999999996</ele>
        <time>2013-07-27T06:40:33Z</time>
      </trkpt>
      <trkpt lat="12.728777015581727" lon="99.875297974795103">
        <ele>84.730000000000004</ele>
        <time>2013-07-27T06:41:13Z</time>
      </trkpt>
      <trkpt lat="12.729228967800736" lon="99.873566022142768">
        <ele>84.730000000000004</ele>
        <time>2013-07-27T06:41:53Z</time>
      </trkpt>
      <trkpt lat="12.729641022160649" lon="99.868453983217478">
        <ele>106.359999999999999</ele>
        <time>2013-07-27T06:45:24Z</time>
      </trkpt>
      <trkpt lat="12.729486962780356" lon="99.868000019341707">
        <ele>105.400000000000006</ele>
        <time>2013-07-27T06:45:42Z</time>
      </trkpt>
      <trkpt lat="12.729701036587358" lon="99.867605986073613">
        <ele>114.049999999999997</ele>
        <time>2013-07-27T06:48:01Z</time>
      </trkpt>
      <trkpt lat="12.729108016937971" lon="99.865633975714445">
        <ele>109.730000000000004</ele>
        <time>2013-07-27T06:50:35Z</time>
      </trkpt>
      <trkpt lat="12.729089995846152" lon="99.864739961922169">
        <ele>107.319999999999993</ele>
        <time>2013-07-27T06:51:02Z</time>
      </trkpt>
      <trkpt lat="12.729243971407413" lon="99.864224977791309">
        <ele>105.400000000000006</ele>
        <time>2013-07-27T06:51:24Z</time>
      </trkpt>
      <trkpt lat="12.728553973138332" lon="99.863983998075128">
        <ele>103.480000000000004</ele>
        <time>2013-07-27T06:51:59Z</time>
      </trkpt>
      <trkpt lat="12.727996995672584" lon="99.864038983359933">
        <ele>102.519999999999996</ele>
        <time>2013-07-27T06:52:10Z</time>
      </trkpt>
      <trkpt lat="12.727391989901662" lon="99.863605974242091">
        <ele>104.439999999999998</ele>
        <time>2013-07-27T06:52:29Z</time>
      </trkpt>
      <trkpt lat="12.726911036297679" lon="99.863438000902534">
        <ele>104.920000000000002</ele>
        <time>2013-07-27T06:52:41Z</time>
      </trkpt>
      <trkpt lat="12.725911997258663" lon="99.862370984628797">
        <ele>104.439999999999998</ele>
        <time>2013-07-27T06:53:13Z</time>
      </trkpt>
      <trkpt lat="12.725244965404272" lon="99.862016011029482">
        <ele>104.439999999999998</ele>
        <time>2013-07-27T06:53:29Z</time>
      </trkpt>
      <trkpt lat="12.72506601177156" lon="99.861631030216813">
        <ele>104.920000000000002</ele>
        <time>2013-07-27T06:53:38Z</time>
      </trkpt>
      <trkpt lat="12.724913964048028" lon="99.86143296584487">
        <ele>103.959999999999994</ele>
        <time>2013-07-27T06:53:44Z</time>
      </trkpt>
      <trkpt lat="12.725014965981245" lon="99.861293993890285">
        <ele>104.439999999999998</ele>
        <time>2013-07-27T06:53:49Z</time>
      </trkpt>
      <trkpt lat="12.727373968809843" lon="99.860396040603518">
        <ele>111.650000000000006</ele>
        <time>2013-07-27T06:54:48Z</time>
      </trkpt>
      <trkpt lat="12.727404981851578" lon="99.860352035611868">
        <ele>111.170000000000002</ele>
        <time>2013-07-27T06:54:50Z</time>
      </trkpt>
      <trkpt lat="12.727415962144732" lon="99.859688021242619">
        <ele>107.810000000000002</ele>
        <time>2013-07-27T06:55:02Z</time>
      </trkpt>
      <trkpt lat="12.726982031017542" lon="99.85947897657752">
        <ele>108.290000000000006</ele>
        <time>2013-07-27T06:55:17Z</time>
      </trkpt>
      <trkpt lat="12.726233024150133" lon="99.858815968036652">
        <ele>108.290000000000006</ele>
        <time>2013-07-27T06:55:42Z</time>
      </trkpt>
      <trkpt lat="12.725893976166844" lon="99.857561029493809">
        <ele>115.5</ele>
        <time>2013-07-27T06:56:27Z</time>
      </trkpt>
      <trkpt lat="12.726618004962802" lon="99.856131998822093">
        <ele>128.469999999999999</ele>
        <time>2013-07-27T06:58:11Z</time>
      </trkpt>
      <trkpt lat="12.727011032402515" lon="99.855232033878565">
        <ele>132.319999999999993</ele>
        <time>2013-07-27T06:58:54Z</time>
      </trkpt>
      <trkpt lat="12.727063000202179" lon="99.853780036792159">
        <ele>127.989999999999995</ele>
        <time>2013-07-27T06:59:34Z</time>
      </trkpt>
      <trkpt lat="12.727476982399821" lon="99.853276032954454">
        <ele>131.360000000000014</ele>
        <time>2013-07-27T07:00:03Z</time>
      </trkpt>
      <trkpt lat="12.727496009320021" lon="99.852402973920107">
        <ele>132.319999999999993</ele>
        <time>2013-07-27T07:00:46Z</time>
      </trkpt>
      <trkpt lat="12.727748975157738" lon="99.851948004215956">
        <ele>137.610000000000014</ele>
        <time>2013-07-27T07:01:18Z</time>
      </trkpt>
      <trkpt lat="12.727826004847884" lon="99.851833004504442">
        <ele>138.090000000000003</ele>
        <time>2013-07-27T07:01:27Z</time>
      </trkpt>
      <trkpt lat="12.728358004242182" lon="99.851149041205645">
        <ele>131.360000000000014</ele>
        <time>2013-07-27T07:02:01Z</time>
      </trkpt>
      <trkpt lat="12.729082033038139" lon="99.850804964080453">
        <ele>131.840000000000003</ele>
        <time>2013-07-27T07:02:28Z</time>
      </trkpt>
      <trkpt lat="12.72953700274229" lon="99.849684974178672">
        <ele>131.360000000000014</ele>
        <time>2013-07-27T07:02:58Z</time>
      </trkpt>
      <trkpt lat="12.730027008801699" lon="99.849226986989379">
        <ele>132.319999999999993</ele>
        <time>2013-07-27T07:03:13Z</time>
      </trkpt>
      <trkpt lat="12.7305259834975" lon="99.848994975909591">
        <ele>131.840000000000003</ele>
        <time>2013-07-27T07:03:26Z</time>
      </trkpt>
      <trkpt lat="12.732359021902084" lon="99.849005034193397">
        <ele>132.319999999999993</ele>
        <time>2013-07-27T07:04:09Z</time>
      </trkpt>
      <trkpt lat="12.735310038551688" lon="99.849193040281534">
        <ele>131.840000000000003</ele>
        <time>2013-07-27T07:05:21Z</time>
      </trkpt>
      <trkpt lat="12.735152039676905" lon="99.849877003580332">
        <ele>132.319999999999993</ele>
        <time>2013-07-27T07:05:39Z</time>
      </trkpt>
      <trkpt lat="12.735350020229816" lon="99.850103985518217">
        <ele>133.280000000000001</ele>
        <time>2013-07-27T07:05:48Z</time>
      </trkpt>
      <trkpt lat="12.736650975421071" lon="99.850266007706523">
        <ele>136.159999999999997</ele>
        <time>2013-07-27T07:06:24Z</time>
      </trkpt>
      <trkpt lat="12.737087002024055" lon="99.85049600712955">
        <ele>137.610000000000014</ele>
        <time>2013-07-27T07:06:39Z</time>
      </trkpt>
      <trkpt lat="12.73798000998795" lon="99.850701028481126">
        <ele>139.050000000000011</ele>
        <time>2013-07-27T07:07:06Z</time>
      </trkpt>
      <trkpt lat="12.739778012037277" lon="99.850274976342916">
        <ele>149.139999999999986</ele>
        <time>2013-07-27T07:10:53Z</time>
      </trkpt>
      <trkpt lat="12.739816987887025" lon="99.850185960531235">
        <ele>149.139999999999986</ele>
        <time>2013-07-27T07:11:04Z</time>
      </trkpt>
      <trkpt lat="12.739627975970507" lon="99.850275982171297">
        <ele>146.740000000000009</ele>
        <time>2013-07-27T07:11:16Z</time>
      </trkpt>
      <trkpt lat="12.739809025079012" lon="99.850291991606355">
        <ele>148.180000000000007</ele>
        <time>2013-07-27T07:11:39Z</time>
      </trkpt>
      <trkpt lat="12.739811958745122" lon="99.850454013794661">
        <ele>149.139999999999986</ele>
        <time>2013-07-27T07:13:11Z</time>
      </trkpt>
      <trkpt lat="12.739836014807224" lon="99.850286962464452">
        <ele>149.620000000000005</ele>
        <time>2013-07-27T07:13:34Z</time>
      </trkpt>
      <trkpt lat="12.739989990368485" lon="99.850358041003346">
        <ele>152.509999999999991</ele>
        <time>2013-07-27T07:13:44Z</time>
      </trkpt>
      <trkpt lat="12.740153018385172" lon="99.851382980123162">
        <ele>152.030000000000001</ele>
        <time>2013-07-27T07:14:26Z</time>
      </trkpt>
      <trkpt lat="12.740855002775788" lon="99.851937023922801">
        <ele>158.27000000000001</ele>
        <time>2013-07-27T07:15:23Z</time>
      </trkpt>
      <trkpt lat="12.741024987772107" lon="99.85217004083097">
        <ele>158.27000000000001</ele>
        <time>2013-07-27T07:15:34Z</time>
      </trkpt>
      <trkpt lat="12.741549024358392" lon="99.852295015007257">
        <ele>162.599999999999994</ele>
        <time>2013-07-27T07:16:05Z</time>
      </trkpt>
      <trkpt lat="12.74154600687325" lon="99.852975038811564">
        <ele>160.199999999999989</ele>
        <time>2013-07-27T07:16:28Z</time>
      </trkpt>
      <trkpt lat="12.742287972941995" lon="99.853201014921069">
        <ele>165.960000000000008</ele>
        <time>2013-07-27T07:17:06Z</time>
      </trkpt>
      <trkpt lat="12.742585027590394" lon="99.853300005197525">
        <ele>166.449999999999989</ele>
        <time>2013-07-27T07:17:19Z</time>
      </trkpt>
      <trkpt lat="12.743108980357647" lon="99.853781964629889">
        <ele>167.889999999999986</ele>
        <time>2013-07-27T07:17:45Z</time>
      </trkpt>
      <trkpt lat="12.7433290053159" lon="99.854013975709677">
        <ele>168.370000000000005</ele>
        <time>2013-07-27T07:17:57Z</time>
      </trkpt>
      <trkpt lat="12.743435958400369" lon="99.854382025077939">
        <ele>167.889999999999986</ele>
        <time>2013-07-27T07:18:08Z</time>
      </trkpt>
      <trkpt lat="12.74324401281774" lon="99.855065988376737">
        <ele>165.47999999999999</ele>
        <time>2013-07-27T07:18:28Z</time>
      </trkpt>
      <trkpt lat="12.743012001737952" lon="99.856206011027098">
        <ele>159.240000000000009</ele>
        <time>2013-07-27T07:19:37Z</time>
      </trkpt>
      <trkpt lat="12.742509003728628" lon="99.856107020750642">
        <ele>156.830000000000013</ele>
        <time>2013-07-27T07:20:03Z</time>
      </trkpt>
      <trkpt lat="12.741967029869556" lon="99.855336975306273">
        <ele>153.469999999999999</ele>
        <time>2013-07-27T07:20:35Z</time>
      </trkpt>
      <trkpt lat="12.740889033302665" lon="99.854567013680935">
        <ele>149.139999999999986</ele>
        <time>2013-07-27T07:21:11Z</time>
      </trkpt>
      <trkpt lat="12.738691968843341" lon="99.854667009785771">
        <ele>147.699999999999989</ele>
        <time>2013-07-27T07:22:45Z</time>
      </trkpt>
      <trkpt lat="12.737104017287493" lon="99.854245986789465">
        <ele>143.849999999999994</ele>
        <time>2013-07-27T07:23:26Z</time>
      </trkpt>
      <trkpt lat="12.736833030357957" lon="99.85386704094708">
        <ele>142.889999999999986</ele>
        <time>2013-07-27T07:23:41Z</time>
      </trkpt>
      <trkpt lat="12.736289966851473" lon="99.854047000408173">
        <ele>142.409999999999997</ele>
        <time>2013-07-27T07:23:56Z</time>
      </trkpt>
      <trkpt lat="12.735292017459869" lon="99.854069966822863">
        <ele>140.490000000000009</ele>
        <time>2013-07-27T07:24:18Z</time>
      </trkpt>
      <trkpt lat="12.734468998387456" lon="99.854177003726363">
        <ele>137.129999999999995</ele>
        <time>2013-07-27T07:24:35Z</time>
      </trkpt>
      <trkpt lat="12.733864998444915" lon="99.854855015873909">
        <ele>134.240000000000009</ele>
        <time>2013-07-27T07:24:54Z</time>
      </trkpt>
      <trkpt lat="12.733023036271334" lon="99.85477396287024">
        <ele>132.800000000000011</ele>
        <time>2013-07-27T07:25:52Z</time>
      </trkpt>
      <trkpt lat="12.732678959146142" lon="99.85447296872735">
        <ele>132.319999999999993</ele>
        <time>2013-07-27T07:26:32Z</time>
      </trkpt>
      <trkpt lat="12.732511991634965" lon="99.854354029521346">
        <ele>131.840000000000003</ele>
        <time>2013-07-27T07:26:53Z</time>
      </trkpt>
      <trkpt lat="12.731918971985579" lon="99.855230022221804">
        <ele>130.400000000000006</ele>
        <time>2013-07-27T07:27:21Z</time>
      </trkpt>
      <trkpt lat="12.731594005599618" lon="99.855968970805407">
        <ele>129.919999999999987</ele>
        <time>2013-07-27T07:27:37Z</time>
      </trkpt>
      <trkpt lat="12.731605991721153" lon="99.856323022395372">
        <ele>128.469999999999999</ele>
        <time>2013-07-27T07:27:44Z</time>
      </trkpt>
      <trkpt lat="12.734174039214849" lon="99.856918975710869">
        <ele>129.430000000000007</ele>
        <time>2013-07-27T07:28:49Z</time>
      </trkpt>
      <trkpt lat="12.735089007765055" lon="99.857361037284136">
        <ele>124.629999999999995</ele>
        <time>2013-07-27T07:29:13Z</time>
      </trkpt>
      <trkpt lat="12.735756039619446" lon="99.857230028137565">
        <ele>128.469999999999999</ele>
        <time>2013-07-27T07:29:41Z</time>
      </trkpt>
      <trkpt lat="12.737793009728193" lon="99.857646021991968">
        <ele>142.889999999999986</ele>
        <time>2013-07-27T07:31:27Z</time>
      </trkpt>
      <trkpt lat="12.738522989675403" lon="99.857676029205322">
        <ele>146.740000000000009</ele>
        <time>2013-07-27T07:32:09Z</time>
      </trkpt>
      <trkpt lat="12.7384730335325" lon="99.858138039708138">
        <ele>150.580000000000013</ele>
        <time>2013-07-27T07:32:34Z</time>
      </trkpt>
      <trkpt lat="12.737927036359906" lon="99.858086993917823">
        <ele>146.259999999999991</ele>
        <time>2013-07-27T07:32:52Z</time>
      </trkpt>
      <trkpt lat="12.737767025828362" lon="99.858209034428">
        <ele>145.780000000000001</ele>
        <time>2013-07-27T07:33:02Z</time>
      </trkpt>
      <trkpt lat="12.737461002543569" lon="99.858218003064394">
        <ele>142.889999999999986</ele>
        <time>2013-07-27T07:33:16Z</time>
      </trkpt>
      <trkpt lat="12.737348014488816" lon="99.858976984396577">
        <ele>147.699999999999989</ele>
        <time>2013-07-27T07:34:24Z</time>
      </trkpt>
      <trkpt lat="12.736783996224403" lon="99.85891998745501">
        <ele>141.449999999999989</ele>
        <time>2013-07-27T07:34:49Z</time>
      </trkpt>
      <trkpt lat="12.736638989299536" lon="99.859132971614599">
        <ele>140.969999999999999</ele>
        <time>2013-07-27T07:35:00Z</time>
      </trkpt>
      <trkpt lat="12.736060973256826" lon="99.859500015154481">
        <ele>131.840000000000003</ele>
        <time>2013-07-27T07:35:19Z</time>
      </trkpt>
      <trkpt lat="12.735947985202074" lon="99.860033020377159">
        <ele>127.989999999999995</ele>
        <time>2013-07-27T07:35:26Z</time>
      </trkpt>
      <trkpt lat="12.736167004331946" lon="99.86065898090601">
        <ele>131.360000000000014</ele>
        <time>2013-07-27T07:35:42Z</time>
      </trkpt>
      <trkpt lat="12.736129034310579" lon="99.860918987542391">
        <ele>133.280000000000001</ele>
        <time>2013-07-27T07:35:56Z</time>
      </trkpt>
      <trkpt lat="12.736117970198393" lon="99.861269015818834">
        <ele>134.240000000000009</ele>
        <time>2013-07-27T07:36:13Z</time>
      </trkpt>
      <trkpt lat="12.736136997118592" lon="99.861415028572083">
        <ele>134.240000000000009</ele>
        <time>2013-07-27T07:36:19Z</time>
      </trkpt>
      <trkpt lat="12.735273996368051" lon="99.862511968240142">
        <ele>130.879999999999995</ele>
        <time>2013-07-27T07:36:49Z</time>
      </trkpt>
      <trkpt lat="12.735687978565693" lon="99.862728975713253">
        <ele>133.280000000000001</ele>
        <time>2013-07-27T07:37:14Z</time>
      </trkpt>
      <trkpt lat="12.736233975738287" lon="99.863456021994352">
        <ele>132.800000000000011</ele>
        <time>2013-07-27T07:37:49Z</time>
      </trkpt>
      <trkpt lat="12.736591966822743" lon="99.864210980013013">
        <ele>138.090000000000003</ele>
        <time>2013-07-27T07:38:28Z</time>
      </trkpt>
      <trkpt lat="12.737223040312529" lon="99.86491397023201">
        <ele>149.139999999999986</ele>
        <time>2013-07-27T07:39:36Z</time>
      </trkpt>
      <trkpt lat="12.738282009959221" lon="99.865511013194919">
        <ele>156.349999999999994</ele>
        <time>2013-07-27T07:41:18Z</time>
      </trkpt>
      <trkpt lat="12.739061024039984" lon="99.866688000038266">
        <ele>181.349999999999994</ele>
        <time>2013-07-27T07:43:20Z</time>
      </trkpt>
      <trkpt lat="12.739628981798887" lon="99.867219999432564">
        <ele>199.610000000000014</ele>
        <time>2013-07-27T07:44:51Z</time>
      </trkpt>
      <trkpt lat="12.739647002890706" lon="99.867230979725718">
        <ele>199.610000000000014</ele>
        <time>2013-07-27T07:44:53Z</time>
      </trkpt>
      <trkpt lat="12.739872979000211" lon="99.867558963596821">
        <ele>208.259999999999991</ele>
        <time>2013-07-27T07:45:41Z</time>
      </trkpt>
      <trkpt lat="12.740360973402858" lon="99.869099976494908">
        <ele>239.02000000000001</ele>
        <time>2013-07-27T07:48:24Z</time>
      </trkpt>
      <trkpt lat="12.740545039996505" lon="99.869297035038471">
        <ele>241.909999999999997</ele>
        <time>2013-07-27T07:48:50Z</time>
      </trkpt>
      <trkpt lat="12.740820972248912" lon="99.869598029181361">
        <ele>241.430000000000007</ele>
        <time>2013-07-27T07:49:10Z</time>
      </trkpt>
      <trkpt lat="12.741739964112639" lon="99.869840014725924">
        <ele>231.810000000000002</ele>
        <time>2013-07-27T07:49:22Z</time>
      </trkpt>
      <trkpt lat="12.742569018155336" lon="99.870436973869801">
        <ele>227.490000000000009</ele>
        <time>2013-07-27T07:49:34Z</time>
      </trkpt>
      <trkpt lat="12.743633016943932" lon="99.870707960799336">
        <ele>234.219999999999999</ele>
        <time>2013-07-27T07:50:11Z</time>
      </trkpt>
      <trkpt lat="12.744713025167584" lon="99.871475994586945">
        <ele>241.430000000000007</ele>
        <time>2013-07-27T07:51:13Z</time>
      </trkpt>
      <trkpt lat="12.744958028197289" lon="99.871801966801286">
        <ele>243.830000000000013</ele>
        <time>2013-07-27T07:51:32Z</time>
      </trkpt>
      <trkpt lat="12.745224991813302" lon="99.872384006157517">
        <ele>245.75</ele>
        <time>2013-07-27T08:10:24Z</time>
      </trkpt>
      <trkpt lat="12.745548030361533" lon="99.872880969196558">
        <ele>244.310000000000002</ele>
        <time>2013-07-27T08:17:11Z</time>
      </trkpt>
      <trkpt lat="12.745698988437653" lon="99.873032011091709">
        <ele>242.870000000000005</ele>
        <time>2013-07-27T08:17:15Z</time>
      </trkpt>
      <trkpt lat="12.747100023552775" lon="99.873876990750432">
        <ele>251.039999999999992</ele>
        <time>2013-07-27T08:18:26Z</time>
      </trkpt>
      <trkpt lat="12.747896974906325" lon="99.874038007110357">
        <ele>251.52000000000001</ele>
        <time>2013-07-27T08:18:52Z</time>
      </trkpt>
      <trkpt lat="12.748270975425839" lon="99.874564977362752">
        <ele>254.409999999999997</ele>
        <time>2013-07-27T08:19:19Z</time>
      </trkpt>
      <trkpt lat="12.748568030074239" lon="99.874812997877598">
        <ele>253.930000000000007</ele>
        <time>2013-07-27T08:19:35Z</time>
      </trkpt>
      <trkpt lat="12.7495629619807" lon="99.87505498342216">
        <ele>260.170000000000016</ele>
        <time>2013-07-27T08:20:29Z</time>
      </trkpt>
      <trkpt lat="12.750092027708888" lon="99.875328987836838">
        <ele>262.100000000000023</ele>
        <time>2013-07-27T08:20:58Z</time>
      </trkpt>
      <trkpt lat="12.750927032902837" lon="99.875351032242179">
        <ele>267.379999999999995</ele>
        <time>2013-07-27T08:21:41Z</time>
      </trkpt>
      <trkpt lat="12.751354007050395" lon="99.875844977796078">
        <ele>265.939999999999998</ele>
        <time>2013-07-27T08:22:08Z</time>
      </trkpt>
      <trkpt lat="12.751867985352874" lon="99.875872973352671">
        <ele>271.230000000000018</ele>
        <time>2013-07-27T08:22:36Z</time>
      </trkpt>
      <trkpt lat="12.751676039770246" lon="99.876678977161646">
        <ele>269.79000000000002</ele>
        <time>2013-07-27T08:23:15Z</time>
      </trkpt>
      <trkpt lat="12.751935962587595" lon="99.877179963514209">
        <ele>274.589999999999975</ele>
        <time>2013-07-27T08:24:26Z</time>
      </trkpt>
      <trkpt lat="12.751992959529161" lon="99.877270990982652">
        <ele>274.589999999999975</ele>
        <time>2013-07-27T08:24:32Z</time>
      </trkpt>
      <trkpt lat="12.752065965905786" lon="99.878643024712801">
        <ele>266.420000000000016</ele>
        <time>2013-07-27T08:25:33Z</time>
      </trkpt>
      <trkpt lat="12.752322033047676" lon="99.879426984116435">
        <ele>271.230000000000018</ele>
        <time>2013-07-27T08:26:13Z</time>
      </trkpt>
      <trkpt lat="12.752727968618274" lon="99.880028972402215">
        <ele>267.379999999999995</ele>
        <time>2013-07-27T08:26:36Z</time>
      </trkpt>
      <trkpt lat="12.753215041011572" lon="99.880058979615569">
        <ele>257.29000000000002</ele>
        <time>2013-07-27T08:27:34Z</time>
      </trkpt>
      <trkpt lat="12.753722984343767" lon="99.880438009276986">
        <ele>253.930000000000007</ele>
        <time>2013-07-27T08:28:11Z</time>
      </trkpt>
      <trkpt lat="12.753882994875312" lon="99.881037985906005">
        <ele>245.75</ele>
        <time>2013-07-27T08:28:59Z</time>
      </trkpt>
      <trkpt lat="12.754079969599843" lon="99.881163965910673">
        <ele>242.870000000000005</ele>
        <time>2013-07-27T08:29:13Z</time>
      </trkpt>
      <trkpt lat="12.755370028316975" lon="99.88214397802949">
        <ele>213.550000000000011</ele>
        <time>2013-07-27T08:31:46Z</time>
      </trkpt>
      <trkpt lat="12.755873026326299" lon="99.882913017645478">
        <ele>203.460000000000008</ele>
        <time>2013-07-27T08:33:25Z</time>
      </trkpt>
      <trkpt lat="12.755976961925626" lon="99.883132958784699">
        <ele>198.169999999999987</ele>
        <time>2013-07-27T08:33:52Z</time>
      </trkpt>
      <trkpt lat="12.756379041820765" lon="99.883524980396032">
        <ele>180.870000000000005</ele>
        <time>2013-07-27T08:35:33Z</time>
      </trkpt>
      <trkpt lat="12.756409971043468" lon="99.884387981146574">
        <ele>161.639999999999986</ele>
        <time>2013-07-27T08:36:35Z</time>
      </trkpt>
      <trkpt lat="12.756249960511923" lon="99.884644970297813">
        <ele>152.990000000000009</ele>
        <time>2013-07-27T08:36:54Z</time>
      </trkpt>
      <trkpt lat="12.756225988268852" lon="99.884945964440703">
        <ele>140.969999999999999</ele>
        <time>2013-07-27T08:37:55Z</time>
      </trkpt>
      <trkpt lat="12.756828982383013" lon="99.885543007403612">
        <ele>127.030000000000001</ele>
        <time>2013-07-27T08:38:35Z</time>
      </trkpt>
      <trkpt lat="12.757103992626071" lon="99.886037036776543">
        <ele>119.340000000000003</ele>
        <time>2013-07-27T08:39:53Z</time>
      </trkpt>
      <trkpt lat="12.75716601870954" lon="99.886521007865667">
        <ele>115.010000000000005</ele>
        <time>2013-07-27T08:40:06Z</time>
      </trkpt>
      <trkpt lat="12.757794996723533" lon="99.887132970616221">
        <ele>106.840000000000003</ele>
        <time>2013-07-27T08:40:34Z</time>
      </trkpt>
      <trkpt lat="12.758364966139197" lon="99.887903016060591">
        <ele>101.560000000000002</ele>
        <time>2013-07-27T08:40:58Z</time>
      </trkpt>
      <trkpt lat="12.759388983249664" lon="99.888741038739681">
        <ele>96.75</ele>
        <time>2013-07-27T08:41:23Z</time>
      </trkpt>
      <trkpt lat="12.759759966284037" lon="99.889185028150678">
        <ele>94.349999999999994</ele>
        <time>2013-07-27T08:41:35Z</time>
      </trkpt>
      <trkpt lat="12.760018967092037" lon="99.889286030083895">
        <ele>93.390000000000001</ele>
        <time>2013-07-27T08:41:40Z</time>
      </trkpt>
      <trkpt lat="12.760146958753467" lon="99.889347972348332">
        <ele>92.420000000000002</ele>
        <time>2013-07-27T08:41:45Z</time>
      </trkpt>
      <trkpt lat="12.760201022028923" lon="99.889766983687878">
        <ele>88.579999999999998</ele>
        <time>2013-07-27T08:41:53Z</time>
      </trkpt>
      <trkpt lat="12.760573010891676" lon="99.889896987006068">
        <ele>85.689999999999998</ele>
        <time>2013-07-27T08:42:03Z</time>
      </trkpt>
      <trkpt lat="12.760803010314703" lon="99.890257995575666">
        <ele>83.290000000000006</ele>
        <time>2013-07-27T08:42:10Z</time>
      </trkpt>
      <trkpt lat="12.761902967467904" lon="99.890545997768641">
        <ele>80.890000000000001</ele>
        <time>2013-07-27T08:42:31Z</time>
      </trkpt>
      <trkpt lat="12.762020984664559" lon="99.890637025237083">
        <ele>79.450000000000003</ele>
        <time>2013-07-27T08:42:34Z</time>
      </trkpt>
      <trkpt lat="12.762409988790751" lon="99.891440011560917">
        <ele>77.519999999999996</ele>
        <time>2013-07-27T08:42:54Z</time>
      </trkpt>
      <trkpt lat="12.762706037610769" lon="99.891853993758559">
        <ele>75.599999999999994</ele>
        <time>2013-07-27T08:43:03Z</time>
      </trkpt>
      <trkpt lat="12.763176010921597" lon="99.893361981958151">
        <ele>72.719999999999999</ele>
        <time>2013-07-27T08:43:33Z</time>
      </trkpt>
      <trkpt lat="12.7632259670645" lon="99.894021973013878">
        <ele>69.829999999999998</ele>
        <time>2013-07-27T08:43:52Z</time>
      </trkpt>
      <trkpt lat="12.763136029243469" lon="99.893832039088011">
        <ele>69.829999999999998</ele>
        <time>2013-07-27T08:44:07Z</time>
      </trkpt>
      <trkpt lat="12.763049025088549" lon="99.893883001059294">
        <ele>70.310000000000002</ele>
        <time>2013-07-27T08:44:11Z</time>
      </trkpt>
      <trkpt lat="12.762845009565353" lon="99.89413496106863">
        <ele>70.310000000000002</ele>
        <time>2013-07-27T08:44:22Z</time>
      </trkpt>
      <trkpt lat="12.762500010430813" lon="99.89527196623385">
        <ele>70.310000000000002</ele>
        <time>2013-07-27T08:45:06Z</time>
      </trkpt>
      <trkpt lat="12.762392973527312" lon="99.895674968138337">
        <ele>69.829999999999998</ele>
        <time>2013-07-27T08:45:18Z</time>
      </trkpt>
      <trkpt lat="12.761633992195129" lon="99.896131027489901">
        <ele>73.200000000000003</ele>
        <time>2013-07-27T08:45:46Z</time>
      </trkpt>
      <trkpt lat="12.761364011093974" lon="99.896164974197745">
        <ele>74.640000000000001</ele>
        <time>2013-07-27T08:45:58Z</time>
      </trkpt>
      <trkpt lat="12.76129100471735" lon="99.896163968369365">
        <ele>74.640000000000001</ele>
        <time>2013-07-27T08:46:05Z</time>
      </trkpt>
      <trkpt lat="12.761680008843541" lon="99.896123986691236">
        <ele>73.680000000000007</ele>
        <time>2013-07-27T08:46:19Z</time>
      </trkpt>
      <trkpt lat="12.761939009651542" lon="99.896897971630096">
        <ele>72.239999999999995</ele>
        <time>2013-07-27T08:46:37Z</time>
      </trkpt>
      <trkpt lat="12.762222988530993" lon="99.897779999300838">
        <ele>69.829999999999998</ele>
        <time>2013-07-27T08:46:54Z</time>
      </trkpt>
      <trkpt lat="12.763166958466172" lon="99.897543964907527">
        <ele>69.349999999999994</ele>
        <time>2013-07-27T08:47:14Z</time>
      </trkpt>
      <trkpt lat="12.763860980048776" lon="99.89726803265512">
        <ele>67.909999999999997</ele>
        <time>2013-07-27T08:47:33Z</time>
      </trkpt>
      <trkpt lat="12.764044962823391" lon="99.897412033751607">
        <ele>66.469999999999999</ele>
        <time>2013-07-27T08:47:43Z</time>
      </trkpt>
      <trkpt lat="12.764253001660109" lon="99.898014022037387">
        <ele>65.989999999999995</ele>
        <time>2013-07-27T08:48:30Z</time>
      </trkpt>
      <trkpt lat="12.764404965564609" lon="99.898066995665431">
        <ele>65.030000000000001</ele>
        <time>2013-07-27T08:48:34Z</time>
      </trkpt>
      <trkpt lat="12.765327980741858" lon="99.897801037877798">
        <ele>65.030000000000001</ele>
        <time>2013-07-27T08:48:53Z</time>
      </trkpt>
      <trkpt lat="12.766091991215944" lon="99.89726803265512">
        <ele>64.069999999999993</ele>
        <time>2013-07-27T08:49:15Z</time>
      </trkpt>
      <trkpt lat="12.767942966893315" lon="99.897388983517885">
        <ele>67.430000000000007</ele>
        <time>2013-07-27T08:50:10Z</time>
      </trkpt>
      <trkpt lat="12.769385995343328" lon="99.902009004727006">
        <ele>65.030000000000001</ele>
        <time>2013-07-27T08:51:39Z</time>
      </trkpt>
      <trkpt lat="12.769561009481549" lon="99.902565982192755">
        <ele>64.069999999999993</ele>
        <time>2013-07-27T08:51:48Z</time>
      </trkpt>
      <trkpt lat="12.769751194864511" lon="99.902288541197777">
        <ele>53.009765625</ele>
        <time>2013-07-27T08:32:54Z</time>
      </trkpt>
      <trkpt lat="12.772410269826651" lon="99.9013910908252">
        <ele>53.009765625</ele>
        <time>2013-07-27T08:34:54Z</time>
      </trkpt>
      <trkpt lat="12.769580958411098" lon="99.902622979134321">
        <ele>63.579999999999998</ele>
        <time>2013-07-27T08:51:49Z</time>
      </trkpt>
      <trkpt lat="12.769716996699572" lon="99.903249023482203">
        <ele>62.140000000000001</ele>
        <time>2013-07-27T08:52:00Z</time>
      </trkpt>
      <trkpt lat="12.766059972345829" lon="99.904306987300515">
        <ele>63.579999999999998</ele>
        <time>2013-07-27T08:53:06Z</time>
      </trkpt>
      <trkpt lat="12.765703992918134" lon="99.904402960091829">
        <ele>60.219999999999999</ele>
        <time>2013-07-27T08:53:12Z</time>
      </trkpt>
      <trkpt lat="12.76541599072516" lon="99.904637988656759">
        <ele>60.219999999999999</ele>
        <time>2013-07-27T08:53:18Z</time>
      </trkpt>
      <trkpt lat="12.765359999611974" lon="99.904813002794981">
        <ele>59.740000000000002</ele>
        <time>2013-07-27T08:53:22Z</time>
      </trkpt>
      <trkpt lat="12.765425965189934" lon="99.905953025445342">
        <ele>64.069999999999993</ele>
        <time>2013-07-27T08:53:58Z</time>
      </trkpt>
      <trkpt lat="12.763451021164656" lon="99.907043008133769">
        <ele>63.579999999999998</ele>
        <time>2013-07-27T08:55:15Z</time>
      </trkpt>
      <trkpt lat="12.762888008728623" lon="99.906989028677344">
        <ele>64.069999999999993</ele>
        <time>2013-07-27T08:55:31Z</time>
      </trkpt>
      <trkpt lat="12.76249598711729" lon="99.90672298707068">
        <ele>64.069999999999993</ele>
        <time>2013-07-27T08:55:44Z</time>
      </trkpt>
      <trkpt lat="12.762203039601445" lon="99.906242033466697">
        <ele>63.579999999999998</ele>
        <time>2013-07-27T08:55:59Z</time>
      </trkpt>
      <trkpt lat="12.759273983538151" lon="99.896843992173672">
        <ele>73.680000000000007</ele>
        <time>2013-07-27T08:59:33Z</time>
      </trkpt>
      <trkpt lat="12.758686998859048" lon="99.896895037963986">
        <ele>73.200000000000003</ele>
        <time>2013-07-27T08:59:50Z</time>
      </trkpt>
      <trkpt lat="12.758318027481437" lon="99.896220965310931">
        <ele>78.480000000000004</ele>
        <time>2013-07-27T09:13:19Z</time>
      </trkpt>
      <trkpt lat="12.758031031116843" lon="99.896133039146662">
        <ele>79.450000000000003</ele>
        <time>2013-07-27T09:13:33Z</time>
      </trkpt>
      <trkpt lat="12.757456032559276" lon="99.895805977284908">
        <ele>80.409999999999997</ele>
        <time>2013-07-27T09:13:58Z</time>
      </trkpt>
      <trkpt lat="12.756790006533265" lon="99.895670022815466">
        <ele>81.370000000000005</ele>
        <time>2013-07-27T09:14:26Z</time>
      </trkpt>
      <trkpt lat="12.756461016833782" lon="99.895540019497275">
        <ele>81.849999999999994</ele>
        <time>2013-07-27T09:14:38Z</time>
      </trkpt>
      <trkpt lat="12.755429958924651" lon="99.895414961501956">
        <ele>78.480000000000004</ele>
        <time>2013-07-27T09:15:03Z</time>
      </trkpt>
      <trkpt lat="12.755216974765062" lon="99.895456032827497">
        <ele>78.480000000000004</ele>
        <time>2013-07-27T09:15:11Z</time>
      </trkpt>
      <trkpt lat="12.754743983969092" lon="99.89585199393332">
        <ele>79.930000000000007</ele>
        <time>2013-07-27T09:15:54Z</time>
      </trkpt>
      <trkpt lat="12.754573998972774" lon="99.895734982565045">
        <ele>79.450000000000003</ele>
        <time>2013-07-27T09:16:01Z</time>
      </trkpt>
      <trkpt lat="12.754311980679631" lon="99.894955968484282">
        <ele>84.25</ele>
        <time>2013-07-27T09:16:29Z</time>
      </trkpt>
      <trkpt lat="12.754044011235237" lon="99.894703002646565">
        <ele>85.689999999999998</ele>
        <time>2013-07-27T09:16:44Z</time>
      </trkpt>
      <trkpt lat="12.753293998539448" lon="99.894192963838577">
        <ele>87.140000000000001</ele>
        <time>2013-07-27T09:17:15Z</time>
      </trkpt>
      <trkpt lat="12.752974983304739" lon="99.893797002732754">
        <ele>90.980000000000004</ele>
        <time>2013-07-27T09:17:39Z</time>
      </trkpt>
      <trkpt lat="12.752350028604269" lon="99.893699018284678">
        <ele>97.230000000000004</ele>
        <time>2013-07-27T09:18:45Z</time>
      </trkpt>
      <trkpt lat="12.75205004028976" lon="99.89368099719286">
        <ele>97.709999999999994</ele>
        <time>2013-07-27T09:18:56Z</time>
      </trkpt>
      <trkpt lat="12.751851975917816" lon="99.893713016062975">
        <ele>97.230000000000004</ele>
        <time>2013-07-27T09:19:06Z</time>
      </trkpt>
      <trkpt lat="12.751176981255412" lon="99.893244970589876">
        <ele>96.269999999999996</ele>
        <time>2013-07-27T09:19:36Z</time>
      </trkpt>
      <trkpt lat="12.750904988497496" lon="99.893212029710412">
        <ele>96.75</ele>
        <time>2013-07-27T09:19:48Z</time>
      </trkpt>
      <trkpt lat="12.750758975744247" lon="99.893268020823598">
        <ele>98.189999999999998</ele>
        <time>2013-07-27T09:19:59Z</time>
      </trkpt>
      <trkpt lat="12.750712959095836" lon="99.893540013581514">
        <ele>99.150000000000006</ele>
        <time>2013-07-27T09:20:12Z</time>
      </trkpt>
      <trkpt lat="12.751158960163593" lon="99.894006969407201">
        <ele>96.269999999999996</ele>
        <time>2013-07-27T09:20:33Z</time>
      </trkpt>
      <trkpt lat="12.751349983736873" lon="99.895089995115995">
        <ele>90.980000000000004</ele>
        <time>2013-07-27T09:21:00Z</time>
      </trkpt>
      <trkpt lat="12.751615019515157" lon="99.895746968686581">
        <ele>91.459999999999994</ele>
        <time>2013-07-27T09:21:27Z</time>
      </trkpt>
      <trkpt lat="12.751703029498458" lon="99.895933968946338">
        <ele>90.5</ele>
        <time>2013-07-27T09:21:34Z</time>
      </trkpt>
      <trkpt lat="12.751649972051382" lon="99.896483989432454">
        <ele>83.290000000000006</ele>
        <time>2013-07-27T09:21:55Z</time>
      </trkpt>
      <trkpt lat="12.751938980072737" lon="99.896829994395375">
        <ele>81.370000000000005</ele>
        <time>2013-07-27T09:22:18Z</time>
      </trkpt>
      <trkpt lat="12.752039982005954" lon="99.896798981353641">
        <ele>81.849999999999994</ele>
        <time>2013-07-27T09:22:22Z</time>
      </trkpt>
      <trkpt lat="12.752420017495751" lon="99.897125959396362">
        <ele>80.409999999999997</ele>
        <time>2013-07-27T09:22:36Z</time>
      </trkpt>
      <trkpt lat="12.75209697894752" lon="99.897394012659788">
        <ele>84.25</ele>
        <time>2013-07-27T09:22:49Z</time>
      </trkpt>
      <trkpt lat="12.752016009762883" lon="99.897654019296169">
        <ele>82.329999999999998</ele>
        <time>2013-07-27T09:22:58Z</time>
      </trkpt>
      <trkpt lat="12.752319015562534" lon="99.898926978930831">
        <ele>80.890000000000001</ele>
        <time>2013-07-27T09:23:18Z</time>
      </trkpt>
      <trkpt lat="12.752570975571871" lon="99.899642961099744">
        <ele>75.599999999999994</ele>
        <time>2013-07-27T09:23:34Z</time>
      </trkpt>
      <trkpt lat="12.752856966108084" lon="99.89995501935482">
        <ele>77.040000000000006</ele>
        <time>2013-07-27T09:23:53Z</time>
      </trkpt>
      <trkpt lat="12.752811033278704" lon="99.900142019614577">
        <ele>77.040000000000006</ele>
        <time>2013-07-27T09:24:01Z</time>
      </trkpt>
      <trkpt lat="12.753051007166505" lon="99.900521971285343">
        <ele>76.560000000000002</ele>
        <time>2013-07-27T09:24:14Z</time>
      </trkpt>
      <trkpt lat="12.753633968532085" lon="99.901213981211185">
        <ele>74.640000000000001</ele>
        <time>2013-07-27T09:24:34Z</time>
      </trkpt>
      <trkpt lat="12.75392297655344" lon="99.902103971689939">
        <ele>73.200000000000003</ele>
        <time>2013-07-27T09:24:53Z</time>
      </trkpt>
      <trkpt lat="12.753820968791842" lon="99.902630019932985">
        <ele>70.790000000000006</ele>
        <time>2013-07-27T09:25:02Z</time>
      </trkpt>
      <trkpt lat="12.753051007166505" lon="99.903269978240132">
        <ele>66.950000000000003</ele>
        <time>2013-07-27T09:25:16Z</time>
      </trkpt>
      <trkpt lat="12.752753030508757" lon="99.903884958475828">
        <ele>66.469999999999999</ele>
        <time>2013-07-27T09:25:30Z</time>
      </trkpt>
      <trkpt lat="12.752636019140482" lon="99.903971962630749">
        <ele>65.989999999999995</ele>
        <time>2013-07-27T09:25:33Z</time>
      </trkpt>
      <trkpt lat="12.752350028604269" lon="99.904925990849733">
        <ele>67.430000000000007</ele>
        <time>2013-07-27T09:25:55Z</time>
      </trkpt>
      <trkpt lat="12.752184988930821" lon="99.905318012461066">
        <ele>66.469999999999999</ele>
        <time>2013-07-27T09:26:03Z</time>
      </trkpt>
      <trkpt lat="12.751178992912173" lon="99.906025025993586">
        <ele>64.069999999999993</ele>
        <time>2013-07-27T09:26:26Z</time>
      </trkpt>
      <trkpt lat="12.750253966078162" lon="99.905826039612293">
        <ele>65.989999999999995</ele>
        <time>2013-07-27T09:27:01Z</time>
      </trkpt>
      <trkpt lat="12.749793967232108" lon="99.905706010758877">
        <ele>64.069999999999993</ele>
        <time>2013-07-27T09:27:22Z</time>
      </trkpt>
      <trkpt lat="12.749315025284886" lon="99.905758984386921">
        <ele>66.950000000000003</ele>
        <time>2013-07-27T09:27:51Z</time>
      </trkpt>
      <trkpt lat="12.749294992536306" lon="99.905748004093766">
        <ele>64.549999999999997</ele>
        <time>2013-07-27T09:27:58Z</time>
      </trkpt>
      <trkpt lat="12.749155014753342" lon="99.905834002420306">
        <ele>67.430000000000007</ele>
        <time>2013-07-27T09:28:55Z</time>
      </trkpt>
      <trkpt lat="12.749159038066864" lon="99.905982026830316">
        <ele>66.950000000000003</ele>
        <time>2013-07-27T09:29:07Z</time>
      </trkpt>
      <trkpt lat="12.748986035585403" lon="99.905525967478752">
        <ele>68.870000000000005</ele>
        <time>2013-07-27T09:29:20Z</time>
      </trkpt>
      <trkpt lat="12.748623015359044" lon="99.905212987214327">
        <ele>70.790000000000006</ele>
        <time>2013-07-27T09:29:33Z</time>
      </trkpt>
      <trkpt lat="12.748592002317309" lon="99.905214998871088">
        <ele>70.790000000000006</ele>
        <time>2013-07-27T09:29:34Z</time>
      </trkpt>
      <trkpt lat="12.747548036277294" lon="99.905909020453691">
        <ele>63.579999999999998</ele>
        <time>2013-07-27T09:30:14Z</time>
      </trkpt>
      <trkpt lat="12.747108992189169" lon="99.905807012692094">
        <ele>63.579999999999998</ele>
        <time>2013-07-27T09:30:27Z</time>
      </trkpt>
      <trkpt lat="12.746000988408923" lon="99.906071964651346">
        <ele>65.510000000000005</ele>
        <time>2013-07-27T09:30:55Z</time>
      </trkpt>
      <trkpt lat="12.743375021964312" lon="99.90693798288703">
        <ele>64.549999999999997</ele>
        <time>2013-07-27T09:31:49Z</time>
      </trkpt>
      <trkpt lat="12.742333989590406" lon="99.907136969268322">
        <ele>65.510000000000005</ele>
        <time>2013-07-27T09:32:12Z</time>
      </trkpt>
      <trkpt lat="12.740052016451955" lon="99.907335033640265">
        <ele>60.219999999999999</ele>
        <time>2013-07-27T09:32:54Z</time>
      </trkpt>
      <trkpt lat="12.739234026521444" lon="99.907013000920415">
        <ele>63.579999999999998</ele>
        <time>2013-07-27T09:33:18Z</time>
      </trkpt>
      <trkpt lat="12.738745026290417" lon="99.906875034794211">
        <ele>64.549999999999997</ele>
        <time>2013-07-27T09:33:30Z</time>
      </trkpt>
      <trkpt lat="12.738040024414659" lon="99.906715024262667">
        <ele>64.549999999999997</ele>
        <time>2013-07-27T09:33:43Z</time>
      </trkpt>
      <trkpt lat="12.737090019509196" lon="99.906481001526117">
        <ele>60.700000000000003</ele>
        <time>2013-07-27T09:33:58Z</time>
      </trkpt>
      <trkpt lat="12.735264021903276" lon="99.90556200966239">
        <ele>61.18</ele>
        <time>2013-07-27T09:34:39Z</time>
      </trkpt>
      <trkpt lat="12.734383000060916" lon="99.90401797927916">
        <ele>66.469999999999999</ele>
        <time>2013-07-27T09:35:25Z</time>
      </trkpt>
      <trkpt lat="12.733420003205538" lon="99.903317000716925">
        <ele>66.469999999999999</ele>
        <time>2013-07-27T09:35:50Z</time>
      </trkpt>
      <trkpt lat="12.732936032116413" lon="99.902849961072206">
        <ele>64.549999999999997</ele>
        <time>2013-07-27T09:36:05Z</time>
      </trkpt>
      <trkpt lat="12.732776021584868" lon="99.901786968111992">
        <ele>63.100000000000001</ele>
        <time>2013-07-27T09:36:34Z</time>
      </trkpt>
      <trkpt lat="12.732625985518098" lon="99.901449009776115">
        <ele>62.619999999999997</ele>
        <time>2013-07-27T09:36:53Z</time>
      </trkpt>
      <trkpt lat="12.732419958338141" lon="99.901369968429208">
        <ele>64.069999999999993</ele>
        <time>2013-07-27T09:37:50Z</time>
      </trkpt>
      <trkpt lat="12.732108989730477" lon="99.900648035109043">
        <ele>69.829999999999998</ele>
        <time>2013-07-27T09:38:27Z</time>
      </trkpt>
      <trkpt lat="12.731857029721141" lon="99.900695979595184">
        <ele>68.870000000000005</ele>
        <time>2013-07-27T09:38:38Z</time>
      </trkpt>
      <trkpt lat="12.731450004503131" lon="99.901032010093331">
        <ele>67.430000000000007</ele>
        <time>2013-07-27T09:38:50Z</time>
      </trkpt>
      <trkpt lat="12.731071980670094" lon="99.901318000629544">
        <ele>65.510000000000005</ele>
        <time>2013-07-27T09:38:58Z</time>
      </trkpt>
      <trkpt lat="12.730378964915872" lon="99.901843965053558">
        <ele>60.219999999999999</ele>
        <time>2013-07-27T09:39:12Z</time>
      </trkpt>
      <trkpt lat="12.730023991316557" lon="99.902009004727006">
        <ele>55.890000000000001</ele>
        <time>2013-07-27T09:39:20Z</time>
      </trkpt>
      <trkpt lat="12.730000019073486" lon="99.902033982798457">
        <ele>53.490000000000002</ele>
        <time>2013-07-27T09:39:30Z</time>
      </trkpt>
      <trkpt lat="12.730020973831415" lon="99.903725031763315">
        <ele>53.969999999999999</ele>
        <time>2013-07-27T09:40:28Z</time>
      </trkpt>
      <trkpt lat="12.729121008887887" lon="99.905975991860032">
        <ele>52.530000000000001</ele>
        <time>2013-07-27T09:41:03Z</time>
      </trkpt>
      <trkpt lat="12.728489013388753" lon="99.907054994255304">
        <ele>51.57</ele>
        <time>2013-07-27T09:41:20Z</time>
      </trkpt>
      <trkpt lat="12.726938026025891" lon="99.908607993274927">
        <ele>49.159999999999997</ele>
        <time>2013-07-27T09:41:53Z</time>
      </trkpt>
      <trkpt lat="12.726899972185493" lon="99.908625008538365">
        <ele>48.68</ele>
        <time>2013-07-27T09:41:54Z</time>
      </trkpt>
      <trkpt lat="12.723923977464437" lon="99.907992007210851">
        <ele>47.719999999999999</ele>
        <time>2013-07-27T09:42:47Z</time>
      </trkpt>
      <trkpt lat="12.723915008828044" lon="99.907810036092997">
        <ele>48.68</ele>
        <time>2013-07-27T09:42:53Z</time>
      </trkpt>
      <trkpt lat="12.72547597065568" lon="99.905994012951851">
        <ele>50.130000000000003</ele>
        <time>2013-07-27T09:43:43Z</time>
      </trkpt>
      <trkpt lat="12.725491980090737" lon="99.905700981616974">
        <ele>49.649999999999999</ele>
        <time>2013-07-27T09:43:52Z</time>
      </trkpt>
      <trkpt lat="12.725336998701096" lon="99.905452961102128">
        <ele>49.649999999999999</ele>
        <time>2013-07-27T09:43:58Z</time>
      </trkpt>
      <trkpt lat="12.725245971232653" lon="99.905351959168911">
        <ele>48.68</ele>
        <time>2013-07-27T09:44:01Z</time>
      </trkpt>
      <trkpt lat="12.72315502166748" lon="99.905524961650372">
        <ele>49.649999999999999</ele>
        <time>2013-07-27T09:44:44Z</time>
      </trkpt>
      <trkpt lat="12.72324101999402" lon="99.905136041343212">
        <ele>50.130000000000003</ele>
        <time>2013-07-27T09:46:12Z</time>
      </trkpt>
      <trkpt lat="12.721019983291626" lon="99.904643017798662">
        <ele>49.159999999999997</ele>
        <time>2013-07-27T09:47:05Z</time>
      </trkpt>
      <trkpt lat="12.720978995785117" lon="99.904130967333913">
        <ele>49.649999999999999</ele>
        <time>2013-07-27T09:47:22Z</time>
      </trkpt>
      <trkpt lat="12.716727023944259" lon="99.902239004150033">
        <ele>61.18</ele>
        <time>2013-07-27T09:49:30Z</time>
      </trkpt>
      <trkpt lat="12.715201014652848" lon="99.903047019615769">
        <ele>61.659999999999997</ele>
        <time>2013-07-27T09:50:08Z</time>
      </trkpt>
      <trkpt lat="12.713737031444907" lon="99.902736973017454">
        <ele>61.659999999999997</ele>
        <time>2013-07-27T09:50:39Z</time>
      </trkpt>
      <trkpt lat="12.713292958214879" lon="99.902831017971039">
        <ele>61.659999999999997</ele>
        <time>2013-07-27T09:50:48Z</time>
      </trkpt>
      <trkpt lat="12.711872979998589" lon="99.904005993157625">
        <ele>61.18</ele>
        <time>2013-07-27T09:51:21Z</time>
      </trkpt>
      <trkpt lat="12.711656978353858" lon="99.904049998149276">
        <ele>61.18</ele>
        <time>2013-07-27T09:51:25Z</time>
      </trkpt>
      <trkpt lat="12.709630988538265" lon="99.903354970738292">
        <ele>61.18</ele>
        <time>2013-07-27T09:52:04Z</time>
      </trkpt>
      <trkpt lat="12.707574991509318" lon="99.902981976047158">
        <ele>61.659999999999997</ele>
        <time>2013-07-27T09:52:44Z</time>
      </trkpt>
      <trkpt lat="12.707393020391464" lon="99.90294199436903">
        <ele>61.18</ele>
        <time>2013-07-27T09:52:48Z</time>
      </trkpt>
      <trkpt lat="12.706466987729073" lon="99.903418002650142">
        <ele>53.490000000000002</ele>
        <time>2013-07-27T09:53:02Z</time>
      </trkpt>
      <trkpt lat="12.70590397529304" lon="99.903963999822736">
        <ele>50.609999999999999</ele>
        <time>2013-07-27T09:53:18Z</time>
      </trkpt>
      <trkpt lat="12.705576997250319" lon="99.905189014971256">
        <ele>53.009999999999998</ele>
        <time>2013-07-27T09:54:09Z</time>
      </trkpt>
      <trkpt lat="12.704610982909799" lon="99.905022969469428">
        <ele>58.299999999999997</ele>
        <time>2013-07-27T09:54:46Z</time>
      </trkpt>
      <trkpt lat="12.704252991825342" lon="99.905512975528836">
        <ele>58.780000000000001</ele>
        <time>2013-07-27T09:55:02Z</time>
      </trkpt>
      <trkpt lat="12.703574979677796" lon="99.905752027407289">
        <ele>57.340000000000003</ele>
        <time>2013-07-27T10:03:35Z</time>
      </trkpt>
      <trkpt lat="12.702123988419771" lon="99.905440974980593">
        <ele>57.340000000000003</ele>
        <time>2013-07-27T10:04:08Z</time>
      </trkpt>
      <trkpt lat="12.700505023822188" lon="99.904830018058419">
        <ele>56.859999999999999</ele>
        <time>2013-07-27T10:04:45Z</time>
      </trkpt>
      <trkpt lat="12.699274979531765" lon="99.903882024809718">
        <ele>56.369999999999997</ele>
        <time>2013-07-27T10:05:18Z</time>
      </trkpt>
      <trkpt lat="12.698642984032631" lon="99.903541970998049">
        <ele>56.369999999999997</ele>
        <time>2013-07-27T10:05:33Z</time>
      </trkpt>
      <trkpt lat="12.697406988590956" lon="99.903396964073181">
        <ele>57.340000000000003</ele>
        <time>2013-07-27T10:06:02Z</time>
      </trkpt>
      <trkpt lat="12.696489002555609" lon="99.903030004352331">
        <ele>56.859999999999999</ele>
        <time>2013-07-27T10:06:24Z</time>
      </trkpt>
      <trkpt lat="12.694804994389415" lon="99.902623984962702">
        <ele>56.369999999999997</ele>
        <time>2013-07-27T10:07:03Z</time>
      </trkpt>
      <trkpt lat="12.694241981953382" lon="99.902334976941347">
        <ele>55.890000000000001</ele>
        <time>2013-07-27T10:07:17Z</time>
      </trkpt>
      <trkpt lat="12.693289965391159" lon="99.900924973189831">
        <ele>56.859999999999999</ele>
        <time>2013-07-27T10:07:56Z</time>
      </trkpt>
      <trkpt lat="12.692873971536756" lon="99.900647029280663">
        <ele>56.369999999999997</ele>
        <time>2013-07-27T10:08:07Z</time>
      </trkpt>
      <trkpt lat="12.69240902736783" lon="99.900663960725069">
        <ele>56.369999999999997</ele>
        <time>2013-07-27T10:08:18Z</time>
      </trkpt>
      <trkpt lat="12.691949028521776" lon="99.90029901266098">
        <ele>58.299999999999997</ele>
        <time>2013-07-27T10:08:33Z</time>
      </trkpt>
      <trkpt lat="12.692291010171175" lon="99.898295989260077">
        <ele>64.069999999999993</ele>
        <time>2013-07-27T10:09:35Z</time>
      </trkpt>
      <trkpt lat="12.692435011267662" lon="99.896964021027088">
        <ele>67.430000000000007</ele>
        <time>2013-07-27T10:10:17Z</time>
      </trkpt>
      <trkpt lat="12.692542970180511" lon="99.894771985709667">
        <ele>68.390000000000001</ele>
        <time>2013-07-27T10:11:14Z</time>
      </trkpt>
      <trkpt lat="12.692698035389185" lon="99.894574005156755">
        <ele>67.430000000000007</ele>
        <time>2013-07-27T10:11:20Z</time>
      </trkpt>
      <trkpt lat="12.700568977743387" lon="99.894395973533392">
        <ele>67.430000000000007</ele>
        <time>2013-07-27T10:14:03Z</time>
      </trkpt>
      <trkpt lat="12.701609004288912" lon="99.894329002127051">
        <ele>63.579999999999998</ele>
        <time>2013-07-27T10:14:25Z</time>
      </trkpt>
      <trkpt lat="12.701553013175726" lon="99.893629029393196">
        <ele>65.510000000000005</ele>
        <time>2013-07-27T10:15:00Z</time>
      </trkpt>
      <trkpt lat="12.701736995950341" lon="99.893450997769833">
        <ele>65.989999999999995</ele>
        <time>2013-07-27T10:15:11Z</time>
      </trkpt>
      <trkpt lat="12.70450696349144" lon="99.8933179769665">
        <ele>68.390000000000001</ele>
        <time>2013-07-27T10:16:04Z</time>
      </trkpt>
      <trkpt lat="12.705637011677027" lon="99.89258598536253">
        <ele>72.239999999999995</ele>
        <time>2013-07-27T10:16:35Z</time>
      </trkpt>
      <trkpt lat="12.706068009138107" lon="99.892409965395927">
        <ele>72.239999999999995</ele>
        <time>2013-07-27T10:16:49Z</time>
      </trkpt>
      <trkpt lat="12.70620496943593" lon="99.892163034528494">
        <ele>73.200000000000003</ele>
        <time>2013-07-27T10:16:58Z</time>
      </trkpt>
      <trkpt lat="12.706216033548117" lon="99.891422996297479">
        <ele>74.640000000000001</ele>
        <time>2013-07-27T10:17:17Z</time>
      </trkpt>
      <trkpt lat="12.705833986401558" lon="99.890099996700883">
        <ele>75.599999999999994</ele>
        <time>2013-07-27T10:17:52Z</time>
      </trkpt>
      <trkpt lat="12.706272024661303" lon="99.890105025842786">
        <ele>76.079999999999998</ele>
        <time>2013-07-27T10:18:03Z</time>
      </trkpt>
      <trkpt lat="12.706558015197515" lon="99.890305018052459">
        <ele>78.969999999999999</ele>
        <time>2013-07-27T11:55:18Z</time>
      </trkpt>
    </trkseg>
  </trk>

</gpx>
